Time;durP1;ratioP1;P1;durP2;ratioP2;P2;SDS_P1;SDS_P2;PMS_P1;PMS_P2;Temp;Humidity;BMP_temperature;BMP_pressure;BME280_temperature;BME280_humidity;BME280_pressure;Samples;Min_cycle;Max_cycle;Signal;HPM_P1;HPM_P2
2024/02/04 00:01:21;;;;;;;22.50;9.85;;;10.70;60.50;;;;;;6280309;28;20028;-72
2024/02/04 00:04:23;;;;;;;21.27;10.77;;;10.70;60.50;;;;;;6288909;28;20115;-73
2024/02/04 00:07:24;;;;;;;25.17;9.98;;;10.70;60.60;;;;;;6285309;28;20040;-71
2024/02/04 00:10:26;;;;;;;22.23;10.10;;;10.70;60.60;;;;;;6292185;28;20499;-70
2024/02/04 00:13:27;;;;;;;23.15;9.77;;;10.60;60.50;;;;;;6283029;28;20474;-71
2024/02/04 00:16:28;;;;;;;21.40;9.25;;;10.60;60.60;;;;;;6304356;28;20080;-72
2024/02/04 00:19:29;;;;;;;17.67;8.93;;;10.50;60.60;;;;;;6303118;28;20589;-72
2024/02/04 00:22:29;;;;;;;24.38;9.65;;;10.50;60.60;;;;;;6283521;28;20031;-71
2024/02/04 00:25:32;;;;;;;17.08;8.45;;;10.40;60.60;;;;;;6285545;28;20073;-73
2024/02/04 00:28:32;;;;;;;28.35;8.93;;;10.30;60.80;;;;;;6286506;28;20095;-72
2024/02/04 00:31:33;;;;;;;19.58;8.20;;;10.30;60.80;;;;;;6283842;28;20059;-71
2024/02/04 00:34:34;;;;;;;22.27;9.75;;;10.30;60.90;;;;;;6277191;28;20118;-72
2024/02/04 00:37:35;;;;;;;25.73;10.63;;;10.20;60.90;;;;;;6281615;28;20436;-72
2024/02/04 00:40:36;;;;;;;19.17;8.90;;;10.20;60.90;;;;;;6262330;28;20593;-71
2024/02/04 00:43:37;;;;;;;24.42;9.50;;;10.10;61.00;;;;;;6278329;28;20345;-71
2024/02/04 00:46:38;;;;;;;22.85;10.80;;;10.10;61.10;;;;;;6280281;28;20036;-73
2024/02/04 00:49:39;;;;;;;23.55;10.90;;;10.10;61.60;;;;;;6262322;28;20029;-71
2024/02/04 00:52:40;;;;;;;16.77;8.95;;;10.10;61.90;;;;;;6281125;28;20013;-71
2024/02/04 00:55:41;;;;;;;22.67;10.15;;;10.10;62.00;;;;;;6282030;28;20047;-75
2024/02/04 00:58:42;;;;;;;25.55;10.73;;;10.10;62.00;;;;;;6284852;28;20044;-72
2024/02/04 01:01:42;;;;;;;31.73;9.88;;;10.10;62.00;;;;;;6292199;28;20027;-71
2024/02/04 01:04:44;;;;;;;24.05;10.18;;;10.10;62.20;;;;;;6289423;28;20080;-71
2024/02/04 01:07:45;;;;;;;22.75;10.38;;;10.10;62.40;;;;;;6298907;28;20032;-72
2024/02/04 01:10:50;;;;;;;28.75;10.00;;;10.10;62.50;;;;;;6285880;28;20103;-73
2024/02/04 01:13:52;;;;;;;20.65;10.02;;;10.00;62.60;;;;;;6282688;28;20085;-73
2024/02/04 01:16:52;;;;;;;24.30;10.43;;;10.00;62.80;;;;;;6284122;28;20372;-70
2024/02/04 01:19:53;;;;;;;20.55;9.90;;;10.00;62.90;;;;;;6276464;28;20386;-74
2024/02/04 01:22:55;;;;;;;28.50;10.68;;;10.00;62.90;;;;;;6276492;28;20472;-73
2024/02/04 01:25:56;;;;;;;21.40;10.00;;;9.90;63.00;;;;;;6291026;28;20039;-73
2024/02/04 01:28:57;;;;;;;25.33;11.13;;;9.90;63.10;;;;;;6288290;28;20345;-72
2024/02/04 01:31:57;;;;;;;25.42;10.13;;;9.80;63.10;;;;;;6295115;28;20024;-71
2024/02/04 01:34:58;;;;;;;23.63;8.88;;;9.80;63.20;;;;;;6290594;28;20481;-70
2024/02/04 01:37:59;;;;;;;18.13;8.90;;;9.80;63.20;;;;;;6280707;28;20210;-72
2024/02/04 01:41:00;;;;;;;27.70;10.57;;;9.70;63.30;;;;;;6286949;28;20047;-73
2024/02/04 01:44:01;;;;;;;27.52;11.75;;;9.70;63.40;;;;;;6282580;28;20056;-73
2024/02/04 01:47:03;;;;;;;23.95;9.95;;;9.70;63.40;;;;;;6271283;28;20503;-72
2024/02/04 01:50:05;;;;;;;24.80;11.02;;;9.60;63.30;;;;;;6265639;28;20134;-73
2024/02/04 01:53:06;;;;;;;20.88;8.95;;;9.60;63.40;;;;;;6274795;28;20163;-71
2024/02/04 01:56:08;;;;;;;19.77;8.98;;;9.60;63.40;;;;;;6287109;28;20043;-71
2024/02/04 01:59:12;;;;;;;22.45;8.57;;;9.60;63.50;;;;;;6281686;28;20024;-70
2024/02/04 02:02:13;;;;;;;22.20;8.70;;;9.60;63.40;;;;;;6289999;28;20056;-71
2024/02/04 02:05:14;;;;;;;22.38;8.75;;;9.60;63.50;;;;;;6287819;28;20024;-71
2024/02/04 02:08:16;;;;;;;20.83;8.80;;;9.60;63.50;;;;;;6305667;28;20237;-72
2024/02/04 02:11:24;;;;;;;29.60;9.13;;;9.60;63.60;;;;;;6294791;28;20020;-72
2024/02/04 02:14:28;;;;;;;26.30;9.35;;;9.60;63.70;;;;;;6267443;28;20020;-71
2024/02/04 02:17:55;;;;;;;20.80;10.60;;;9.60;63.80;;;;;;6267489;28;20038;-71
2024/02/04 02:21:23;;;;;;;25.25;9.27;;;9.50;64.60;;;;;;6277231;28;20032;-72
2024/02/04 02:24:24;;;;;;;22.67;10.63;;;9.50;63.90;;;;;;6277610;28;20652;-72
2024/02/04 02:27:25;;;;;;;22.48;9.35;;;9.50;63.70;;;;;;6280755;28;20040;-71
2024/02/04 02:30:26;;;;;;;19.20;9.52;;;9.40;63.70;;;;;;6275231;28;20017;-72
2024/02/04 02:33:27;;;;;;;20.00;9.10;;;9.40;63.70;;;;;;6280040;28;20051;-72
2024/02/04 02:36:33;;;;;;;18.90;9.15;;;9.40;63.60;;;;;;6275214;28;20028;-72
2024/02/04 02:39:48;;;;;;;19.73;8.35;;;9.30;63.50;;;;;;6273175;28;20027;-72
2024/02/04 02:42:51;;;;;;;23.38;8.07;;;9.30;63.50;;;;;;6269428;28;20082;-72
2024/02/04 02:45:52;;;;;;;14.45;7.13;;;9.20;63.70;;;;;;6290939;28;20087;-70
2024/02/04 02:48:53;;;;;;;21.02;8.80;;;9.10;63.70;;;;;;6290586;28;20488;-71
2024/02/04 02:51:54;;;;;;;18.23;8.32;;;9.00;63.80;;;;;;6267899;28;20031;-71
2024/02/04 02:54:55;;;;;;;19.77;8.38;;;9.00;63.90;;;;;;6271172;28;20404;-71
2024/02/04 02:57:56;;;;;;;28.75;9.90;;;9.00;64.00;;;;;;6289257;28;20147;-71
2024/02/04 03:00:58;;;;;;;19.80;8.13;;;9.00;64.10;;;;;;6298555;28;20477;-71
2024/02/04 03:03:58;;;;;;;17.23;8.13;;;9.10;64.10;;;;;;6290121;28;20017;-71
2024/02/04 03:06:59;;;;;;;23.25;8.90;;;9.20;64.00;;;;;;6288017;28;20032;-71
2024/02/04 03:10:00;;;;;;;20.33;9.25;;;9.20;63.80;;;;;;6284695;28;20554;-70
2024/02/04 03:13:02;;;;;;;28.70;9.70;;;9.20;63.70;;;;;;6261039;28;20036;-71
2024/02/04 03:16:03;;;;;;;24.38;9.57;;;9.20;63.70;;;;;;6283560;28;20027;-72
2024/02/04 03:19:06;;;;;;;32.28;11.40;;;9.20;63.70;;;;;;6303532;28;20424;-71
2024/02/04 03:22:07;;;;;;;36.85;12.45;;;9.20;63.80;;;;;;6287287;28;20077;-71
2024/02/04 03:25:08;;;;;;;32.97;11.65;;;9.10;64.00;;;;;;6290660;28;20110;-72
2024/02/04 03:28:09;;;;;;;30.60;13.07;;;9.10;64.30;;;;;;6286316;28;20021;-72
2024/02/04 03:31:10;;;;;;;27.75;9.75;;;9.10;64.60;;;;;;6263354;28;20034;-72
2024/02/04 03:34:12;;;;;;;23.33;10.82;;;9.00;64.60;;;;;;6286185;28;20029;-71
2024/02/04 03:37:13;;;;;;;31.42;11.45;;;9.00;65.60;;;;;;6288540;28;20095;-70
2024/02/04 03:40:14;;;;;;;26.65;11.27;;;9.00;64.80;;;;;;6278399;28;20029;-71
2024/02/04 03:43:17;;;;;;;26.95;10.65;;;9.00;64.90;;;;;;6273506;28;20065;-71
2024/02/04 03:46:18;;;;;;;33.08;10.43;;;9.00;65.70;;;;;;6271066;28;20051;-71
2024/02/04 03:49:19;;;;;;;27.67;10.60;;;9.00;64.80;;;;;;6300986;28;20540;-72
2024/02/04 03:52:20;;;;;;;25.75;10.75;;;9.00;64.70;;;;;;6292456;28;20579;-71
2024/02/04 03:55:21;;;;;;;24.90;10.55;;;9.00;64.70;;;;;;6281165;28;20054;-71
2024/02/04 03:58:29;;;;;;;19.80;8.88;;;9.10;65.00;;;;;;6290083;28;20420;-70
2024/02/04 04:01:31;;;;;;;28.70;10.45;;;9.00;64.90;;;;;;6282672;28;20383;-72
2024/02/04 04:04:33;;;;;;;32.45;10.73;;;9.10;65.10;;;;;;6279272;28;20441;-71
2024/02/04 04:07:34;;;;;;;32.33;11.93;;;9.00;65.20;;;;;;6298034;28;20039;-71
2024/02/04 04:10:35;;;;;;;32.60;9.30;;;9.00;65.20;;;;;;6284275;28;20124;-71
2024/02/04 04:13:37;;;;;;;31.77;11.70;;;9.00;65.30;;;;;;6285685;28;20020;-71
2024/02/04 04:16:38;;;;;;;32.25;10.75;;;9.00;65.50;;;;;;6288264;28;20505;-73
2024/02/04 04:19:40;;;;;;;30.17;11.32;;;9.00;65.60;;;;;;6289877;28;20116;-71
2024/02/04 04:22:41;;;;;;;29.05;11.38;;;9.00;65.70;;;;;;6291987;28;20413;-71
2024/02/04 04:25:42;;;;;;;25.73;11.43;;;9.00;65.80;;;;;;6291310;28;20039;-72
2024/02/04 04:28:43;;;;;;;29.75;10.52;;;9.00;65.90;;;;;;6299712;28;20047;-71
2024/02/04 04:31:44;;;;;;;32.45;12.70;;;9.00;66.00;;;;;;6285468;28;20012;-71
2024/02/04 04:34:44;;;;;;;32.88;10.82;;;9.00;66.10;;;;;;6292986;28;20044;-72
2024/02/04 04:37:45;;;;;;;28.67;11.35;;;9.00;66.10;;;;;;6272419;28;20027;-70
2024/02/04 04:40:47;;;;;;;37.53;12.38;;;9.10;66.00;;;;;;6288317;28;20504;-71
2024/02/04 04:43:49;;;;;;;26.50;10.90;;;9.00;65.90;;;;;;6288396;28;20120;-71
2024/02/04 04:46:49;;;;;;;27.52;11.45;;;9.00;66.10;;;;;;6282672;28;20416;-71
2024/02/04 04:49:50;;;;;;;38.05;12.65;;;9.00;66.20;;;;;;6298938;28;20023;-72
2024/02/04 04:52:52;;;;;;;32.30;13.10;;;8.90;66.20;;;;;;6272953;28;20065;-72
2024/02/04 04:55:52;;;;;;;31.27;11.68;;;9.10;66.30;;;;;;6282111;28;20028;-71
2024/02/04 04:58:53;;;;;;;35.95;12.00;;;9.10;66.20;;;;;;6282098;28;20024;-71
2024/02/04 05:01:54;;;;;;;31.70;12.32;;;9.10;66.20;;;;;;6267468;28;20421;-72
2024/02/04 05:04:55;;;;;;;34.10;12.07;;;9.10;66.10;;;;;;6275113;28;20133;-72
2024/02/04 05:07:56;;;;;;;26.20;10.88;;;9.00;66.00;;;;;;6278944;28;20020;-72
2024/02/04 05:10:57;;;;;;;28.88;10.63;;;9.00;66.20;;;;;;6304019;28;20766;-72
2024/02/04 05:13:58;;;;;;;29.77;10.13;;;9.00;66.40;;;;;;6292638;28;20021;-71
2024/02/04 05:16:59;;;;;;;28.92;10.13;;;8.90;66.50;;;;;;6295877;28;20426;-71
2024/02/04 05:20:02;;;;;;;32.13;10.93;;;8.90;66.60;;;;;;6282871;28;20071;-71
2024/02/04 05:23:03;;;;;;;28.20;10.13;;;8.90;66.70;;;;;;6266853;28;20032;-72
2024/02/04 05:26:04;;;;;;;36.40;12.32;;;8.90;66.80;;;;;;6260023;28;20036;-71
2024/02/04 05:29:05;;;;;;;35.95;11.88;;;8.90;66.90;;;;;;6285497;28;20013;-72
2024/02/04 05:32:08;;;;;;;32.72;10.52;;;8.90;66.90;;;;;;6265923;28;20538;-71
2024/02/04 05:35:10;;;;;;;26.92;10.13;;;8.90;66.90;;;;;;6284141;28;20717;-73
2024/02/04 05:38:11;;;;;;;28.55;10.55;;;8.90;66.90;;;;;;6289928;28;20076;-70
2024/02/04 05:41:11;;;;;;;28.23;11.27;;;8.90;66.80;;;;;;6297946;28;20198;-71
2024/02/04 05:44:12;;;;;;;32.75;12.55;;;8.90;66.90;;;;;;6288683;28;20052;-71
2024/02/04 05:47:13;;;;;;;26.40;11.43;;;8.90;66.80;;;;;;6293281;28;20143;-72
2024/02/04 05:50:14;;;;;;;31.13;10.88;;;8.90;66.80;;;;;;6282479;28;20021;-71
2024/02/04 05:53:15;;;;;;;29.83;12.10;;;8.90;66.80;;;;;;6265413;28;20020;-72
2024/02/04 05:56:15;;;;;;;28.50;11.18;;;8.90;66.80;;;;;;6277732;28;20032;-72
2024/02/04 05:59:16;;;;;;;34.17;10.90;;;8.90;66.80;;;;;;6295253;28;20085;-70
2024/02/04 06:02:17;;;;;;;28.77;10.93;;;9.00;66.90;;;;;;6282429;28;20029;-72
2024/02/04 06:05:18;;;;;;;32.58;10.52;;;9.00;66.80;;;;;;6293417;28;20031;-71
2024/02/04 06:08:18;;;;;;;24.67;9.93;;;9.00;66.80;;;;;;6286750;28;20421;-72
2024/02/04 06:11:19;;;;;;;21.55;9.13;;;9.00;66.80;;;;;;6290251;28;20520;-72
2024/02/04 06:14:21;;;;;;;28.98;10.35;;;9.00;66.60;;;;;;6270667;28;20016;-72
2024/02/04 06:17:22;;;;;;;30.08;9.98;;;9.00;66.70;;;;;;6296920;28;20061;-73
2024/02/04 06:20:23;;;;;;;31.00;11.35;;;9.00;66.70;;;;;;6288600;28;20077;-72
2024/02/04 06:23:24;;;;;;;31.00;13.05;;;9.00;66.60;;;;;;6281046;28;20155;-71
2024/02/04 06:26:26;;;;;;;23.23;11.38;;;9.00;66.70;;;;;;6281083;28;20480;-71
2024/02/04 06:29:26;;;;;;;31.70;11.52;;;9.10;66.70;;;;;;6292438;28;20016;-72
2024/02/04 06:32:28;;;;;;;28.90;10.63;;;9.10;66.80;;;;;;6284958;28;20199;-71
2024/02/04 06:35:28;;;;;;;24.08;9.98;;;9.00;66.70;;;;;;6292825;28;20031;-70
2024/02/04 06:38:31;;;;;;;26.92;10.63;;;9.10;66.70;;;;;;6290626;28;20035;-73
2024/02/04 06:41:34;;;;;;;35.13;11.57;;;9.10;66.70;;;;;;6286805;28;20479;-71
2024/02/04 06:44:35;;;;;;;33.58;11.63;;;9.10;66.80;;;;;;6292302;28;20138;-72
2024/02/04 06:47:36;;;;;;;30.63;11.35;;;9.10;66.90;;;;;;6269469;28;20034;-72
2024/02/04 06:50:37;;;;;;;28.52;12.05;;;9.00;66.80;;;;;;6277294;28;20095;-72
2024/02/04 06:53:39;;;;;;;26.08;10.57;;;9.00;66.90;;;;;;6305405;28;20395;-71
2024/02/04 06:56:40;;;;;;;33.00;11.13;;;9.10;67.00;;;;;;6267700;28;20060;-70
2024/02/04 06:59:41;;;;;;;24.80;10.55;;;9.10;67.00;;;;;;6285518;28;20028;-72
2024/02/04 07:02:42;;;;;;;35.65;11.15;;;9.10;66.90;;;;;;6279866;28;20021;-72
2024/02/04 07:05:46;;;;;;;26.70;11.07;;;9.10;66.90;;;;;;6282913;28;20075;-72
2024/02/04 07:08:47;;;;;;;36.22;11.75;;;9.10;67.00;;;;;;6270397;28;20068;-72
2024/02/04 07:11:48;;;;;;;37.90;12.10;;;9.10;67.00;;;;;;6291703;28;20026;-72
2024/02/04 07:14:49;;;;;;;30.85;12.43;;;9.20;67.00;;;;;;6283613;28;20020;-70
2024/02/04 07:17:51;;;;;;;35.97;11.38;;;9.10;66.80;;;;;;6278933;28;20024;-73
2024/02/04 07:20:52;;;;;;;29.13;10.88;;;9.10;66.90;;;;;;6300275;28;20038;-71
2024/02/04 07:23:52;;;;;;;37.42;10.50;;;9.10;67.20;;;;;;6270396;28;20391;-71
2024/02/04 07:26:53;;;;;;;36.30;12.77;;;9.10;67.20;;;;;;6282764;28;20131;-71
2024/02/04 07:29:57;;;;;;;31.35;10.52;;;9.00;67.30;;;;;;6279900;28;20040;-72
2024/02/04 07:32:58;;;;;;;25.38;8.98;;;9.00;67.50;;;;;;6281915;28;20442;-71
2024/02/04 07:35:59;;;;;;;26.95;10.52;;;9.00;67.60;;;;;;6281109;28;20516;-71
2024/02/04 07:39:04;;;;;;;33.25;10.85;;;9.00;67.50;;;;;;6281119;28;20066;-72
2024/02/04 07:42:05;;;;;;;30.88;11.15;;;9.00;67.70;;;;;;6271841;28;20020;-73
2024/02/04 07:45:08;;;;;;;34.85;11.30;;;9.00;67.90;;;;;;6277561;28;20046;-71
2024/02/04 07:48:10;;;;;;;49.55;14.52;;;9.00;67.70;;;;;;6288506;28;20118;-72
2024/02/04 07:51:11;;;;;;;39.25;13.32;;;9.10;67.60;;;;;;6282580;28;20020;-73
2024/02/04 07:54:13;;;;;;;47.65;11.93;;;9.00;68.30;;;;;;6278337;28;20044;-71
2024/02/04 07:57:14;;;;;;;46.38;15.10;;;9.00;67.50;;;;;;6281649;28;20139;-71
2024/02/04 08:00:17;;;;;;;60.53;15.40;;;9.00;67.70;;;;;;6285625;28;20076;-71
2024/02/04 08:03:18;;;;;;;38.25;12.70;;;9.00;67.80;;;;;;6288959;28;20020;-71
2024/02/04 08:06:18;;;;;;;51.25;14.35;;;9.10;67.80;;;;;;6266245;28;20044;-71
2024/02/04 08:09:20;;;;;;;38.25;10.77;;;9.10;67.80;;;;;;6289591;28;20028;-72
2024/02/04 08:12:22;;;;;;;42.25;14.13;;;9.20;67.70;;;;;;6278773;28;20027;-71
2024/02/04 08:15:24;;;;;;;49.45;13.15;;;9.20;67.60;;;;;;6288156;28;20016;-72
2024/02/04 08:18:25;;;;;;;36.72;12.65;;;9.30;67.50;;;;;;6304298;28;20027;-69
2024/02/04 08:21:26;;;;;;;33.58;12.00;;;9.30;67.40;;;;;;6279235;28;20095;-72
2024/02/04 08:24:29;;;;;;;35.58;12.68;;;9.30;68.10;;;;;;6276690;28;20021;-70
2024/02/04 08:27:30;;;;;;;58.80;13.82;;;9.30;67.30;;;;;;6285517;28;20601;-71
2024/02/04 08:30:30;;;;;;;45.17;13.70;;;9.30;67.20;;;;;;6290755;28;20020;-72
2024/02/04 08:33:31;;;;;;;33.90;11.32;;;9.30;67.10;;;;;;6282823;28;20093;-71
2024/02/04 08:36:33;;;;;;;33.78;11.68;;;9.40;67.10;;;;;;6291190;28;20102;-70
2024/02/04 08:39:35;;;;;;;29.90;10.45;;;9.60;67.20;;;;;;6293952;28;20107;-73
2024/02/04 08:42:37;;;;;;;48.72;12.73;;;9.50;67.00;;;;;;6282095;28;20094;-71
2024/02/04 08:45:37;;;;;;;33.95;12.23;;;9.50;66.70;;;;;;6279538;28;21924;-71
2024/02/04 08:48:38;;;;;;;29.88;9.98;;;9.50;66.50;;;;;;6279737;28;20415;-72
2024/02/04 08:51:39;;;;;;;28.65;10.07;;;9.60;66.30;;;;;;6278002;28;20065;-69
2024/02/04 08:54:40;;;;;;;45.17;12.77;;;9.60;65.90;;;;;;6280107;28;20019;-72
2024/02/04 08:57:41;;;;;;;30.02;11.95;;;9.60;65.50;;;;;;6281403;28;20591;-72
2024/02/04 09:00:41;;;;;;;35.78;12.57;;;9.60;65.40;;;;;;6268450;28;20090;-70
2024/02/04 09:03:42;;;;;;;46.72;12.00;;;9.50;65.50;;;;;;6279935;28;20135;-71
2024/02/04 09:06:43;;;;;;;32.50;11.23;;;9.50;65.60;;;;;;6307463;28;20020;-71
2024/02/04 09:09:44;;;;;;;30.92;10.75;;;9.60;65.50;;;;;;6296967;28;20028;-71
2024/02/04 09:12:45;;;;;;;30.48;11.02;;;9.60;65.40;;;;;;6287043;28;20024;-72
2024/02/04 09:15:45;;;;;;;37.08;12.85;;;9.60;65.40;;;;;;6289079;28;20035;-73
2024/02/04 09:18:47;;;;;;;32.35;10.70;;;9.60;65.30;;;;;;6286764;28;20028;-72
2024/02/04 09:21:48;;;;;;;39.95;11.55;;;9.70;65.30;;;;;;6284390;28;20115;-70
2024/02/04 09:24:49;;;;;;;41.90;11.55;;;9.70;65.10;;;;;;6302105;28;20025;-72
2024/02/04 09:27:50;;;;;;;34.15;12.88;;;9.70;64.90;;;;;;6285866;28;20109;-72
2024/02/04 09:30:52;;;;;;;31.95;11.50;;;9.70;65.00;;;;;;6282657;28;20017;-73
2024/02/04 09:33:53;;;;;;;26.05;10.77;;;9.60;64.90;;;;;;6272433;28;20090;-72
2024/02/04 09:36:53;;;;;;;24.65;10.77;;;9.70;64.90;;;;;;6281291;28;20021;-71
2024/02/04 09:39:54;;;;;;;34.70;12.70;;;9.70;64.80;;;;;;6283528;28;20517;-70
2024/02/04 09:42:58;;;;;;;29.40;11.38;;;9.70;64.80;;;;;;6282052;28;20048;-71
2024/02/04 09:46:00;;;;;;;33.35;14.23;;;9.80;64.80;;;;;;6279968;28;20045;-72
2024/02/04 09:49:02;;;;;;;33.53;12.25;;;9.80;64.60;;;;;;6297624;28;20479;-72
2024/02/04 09:52:08;;;;;;;48.38;11.35;;;9.90;64.50;;;;;;6299590;28;20016;-73
2024/02/04 09:55:12;;;;;;;34.20;11.98;;;9.80;64.40;;;;;;6281452;28;20095;-71
2024/02/04 09:58:13;;;;;;;32.85;11.63;;;9.90;64.30;;;;;;6284561;28;20035;-72
2024/02/04 10:01:17;;;;;;;40.97;12.60;;;9.90;64.30;;;;;;6285965;28;20118;-71
2024/02/04 10:04:18;;;;;;;31.95;13.35;;;9.90;64.20;;;;;;6266885;28;20024;-71
2024/02/04 10:07:20;;;;;;;30.20;11.73;;;10.00;64.10;;;;;;6282066;28;20067;-72
2024/02/04 10:10:21;;;;;;;36.58;12.25;;;10.00;64.00;;;;;;6291446;28;20032;-71
2024/02/04 10:13:24;;;;;;;41.65;12.82;;;10.10;63.90;;;;;;6280665;28;20070;-72
2024/02/04 10:16:26;;;;;;;38.35;12.70;;;10.10;63.70;;;;;;6271357;28;20086;-71
2024/02/04 10:19:27;;;;;;;34.55;12.02;;;10.10;63.50;;;;;;6291969;28;20016;-71
2024/02/04 10:22:29;;;;;;;37.92;11.77;;;10.10;63.50;;;;;;6303460;28;20038;-70
2024/02/04 10:25:31;;;;;;;40.75;13.65;;;10.10;63.40;;;;;;6294086;28;20032;-71
2024/02/04 10:28:34;;;;;;;31.75;11.70;;;10.00;63.50;;;;;;6273299;28;20019;-72
2024/02/04 10:31:40;;;;;;;38.47;11.68;;;10.00;63.50;;;;;;6289427;28;20641;-70
2024/02/04 10:34:41;;;;;;;34.78;12.43;;;10.00;63.50;;;;;;6273760;28;20032;-72
2024/02/04 10:37:42;;;;;;;37.45;11.07;;;10.00;63.50;;;;;;6281773;28;20522;-71
2024/02/04 10:40:44;;;;;;;37.30;12.85;;;10.00;63.40;;;;;;6293965;28;20115;-71
2024/02/04 10:43:45;;;;;;;31.00;11.68;;;10.00;63.30;;;;;;6291348;28;20027;-72
2024/02/04 10:46:50;;;;;;;31.08;11.40;;;10.00;63.30;;;;;;6285951;28;20032;-71
2024/02/04 10:49:55;;;;;;;35.30;13.05;;;9.90;63.40;;;;;;6288108;28;20017;-72
2024/02/04 10:53:03;;;;;;;32.63;13.10;;;9.90;63.60;;;;;;6283049;28;20012;-71
2024/02/04 10:56:06;;;;;;;26.80;11.43;;;10.00;64.40;;;;;;6289090;28;20432;-70
2024/02/04 10:59:09;;;;;;;35.63;12.75;;;10.00;63.50;;;;;;6285577;28;20027;-70
2024/02/04 11:02:11;;;;;;;37.13;10.68;;;10.00;63.30;;;;;;6288614;28;20028;-71
2024/02/04 11:05:14;;;;;;;31.40;11.45;;;10.00;63.20;;;;;;6285383;28;20100;-71
2024/02/04 11:08:15;;;;;;;27.13;10.95;;;10.00;63.20;;;;;;6295708;28;20161;-71
2024/02/04 11:11:16;;;;;;;47.58;13.18;;;9.90;63.30;;;;;;6304881;28;20073;-71
2024/02/04 11:14:20;;;;;;;27.42;10.43;;;9.80;63.40;;;;;;6237161;28;20507;-72
2024/02/04 11:17:51;;;;;;;34.92;10.77;;;9.80;63.60;;;;;;6287023;28;20114;-72
2024/02/04 11:21:06;;;;;;;35.45;13.15;;;9.80;63.70;;;;;;6274324;28;20020;-72
2024/02/04 11:24:34;;;;;;;34.47;11.98;;;9.80;63.70;;;;;;6278922;28;20016;-71
2024/02/04 11:27:36;;;;;;;30.45;11.73;;;9.80;63.60;;;;;;6279338;28;20037;-72
2024/02/04 11:30:36;;;;;;;31.13;11.52;;;9.80;63.40;;;;;;6278362;28;20019;-72
2024/02/04 11:33:38;;;;;;;35.35;11.95;;;9.90;63.30;;;;;;6291204;28;20247;-72
2024/02/04 11:36:42;;;;;;;27.65;11.57;;;10.00;63.20;;;;;;6278758;28;20143;-72
2024/02/04 11:39:51;;;;;;;27.27;11.52;;;10.10;63.20;;;;;;6274920;28;20472;-71
2024/02/04 11:43:12;;;;;;;32.00;11.85;;;10.10;62.80;;;;;;6281084;28;20123;-72
2024/02/04 11:46:18;;;;;;;34.88;12.68;;;10.10;62.70;;;;;;6287868;28;20048;-72
2024/02/04 11:49:26;;;;;;;32.60;11.52;;;10.10;62.60;;;;;;6282530;28;20050;-73
2024/02/04 11:52:28;;;;;;;32.58;11.27;;;10.10;62.60;;;;;;6290928;28;20110;-74
2024/02/04 11:55:28;;;;;;;31.60;11.93;;;10.10;62.60;;;;;;6273580;28;20028;-73
2024/02/04 11:58:31;;;;;;;32.35;10.82;;;10.10;62.70;;;;;;6290096;28;20070;-72
2024/02/04 12:01:34;;;;;;;31.70;11.02;;;10.10;62.80;;;;;;6282175;28;20027;-73
2024/02/04 12:04:37;;;;;;;30.27;9.85;;;10.20;62.70;;;;;;6274417;28;20020;-75
2024/02/04 12:07:38;;;;;;;36.42;11.25;;;10.20;62.60;;;;;;6279411;28;20118;-76
2024/02/04 12:10:40;;;;;;;26.95;11.48;;;10.30;62.40;;;;;;6287066;28;20025;-76
2024/02/04 12:13:43;;;;;;;28.17;9.15;;;10.30;62.10;;;;;;6285012;28;20025;-75
2024/02/04 12:16:45;;;;;;;30.67;8.43;;;10.30;62.10;;;;;;6280989;28;20040;-75
2024/02/04 12:19:46;;;;;;;18.48;7.75;;;10.30;61.90;;;;;;6287195;28;20032;-75
2024/02/04 12:22:49;;;;;;;36.78;11.00;;;10.20;62.00;;;;;;6299287;28;20106;-75
2024/02/04 12:25:50;;;;;;;30.38;11.85;;;10.30;62.10;;;;;;6274715;28;20135;-75
2024/02/04 12:28:51;;;;;;;28.48;10.48;;;10.30;62.00;;;;;;6279461;28;20128;-75
2024/02/04 12:32:03;;;;;;;26.65;9.82;;;10.40;62.00;;;;;;6257000;28;20504;-74
2024/02/04 12:35:06;;;;;;;20.88;8.02;;;10.50;61.90;;;;;;6264164;28;20029;-75
2024/02/04 12:38:10;;;;;;;24.45;9.13;;;10.60;61.50;;;;;;6283922;28;20031;-74
2024/02/04 12:41:14;;;;;;;17.80;7.95;;;10.60;61.40;;;;;;6267692;28;20032;-74
2024/02/04 12:44:18;;;;;;;25.13;10.40;;;10.70;61.20;;;;;;6284180;28;20036;-76
2024/02/04 12:47:20;;;;;;;19.45;8.13;;;10.80;60.90;;;;;;6285230;28;20028;-74
2024/02/04 12:50:21;;;;;;;16.60;7.20;;;10.90;60.60;;;;;;6293559;28;20535;-75
2024/02/04 12:53:22;;;;;;;16.23;6.53;;;10.90;60.50;;;;;;6301069;28;20021;-74
2024/02/04 12:56:22;;;;;;;18.38;7.15;;;11.00;60.20;;;;;;6301620;28;20593;-76
2024/02/04 12:59:29;;;;;;;15.38;6.88;;;11.10;60.00;;;;;;6291269;28;20399;-75
2024/02/04 13:02:30;;;;;;;24.10;8.82;;;11.10;59.90;;;;;;6285729;28;20039;-75
2024/02/04 13:05:31;;;;;;;33.15;11.75;;;11.20;59.80;;;;;;6291770;28;20032;-75
2024/02/04 13:08:33;;;;;;;24.65;9.43;;;11.20;59.70;;;;;;6265727;28;20107;-74
2024/02/04 13:11:34;;;;;;;27.70;9.18;;;11.30;59.50;;;;;;6290463;28;20118;-75
2024/02/04 13:14:38;;;;;;;21.70;8.85;;;11.50;59.50;;;;;;6297726;28;20360;-74
2024/02/04 13:17:39;;;;;;;24.83;9.23;;;11.40;59.20;;;;;;6306889;28;20020;-73
2024/02/04 13:20:41;;;;;;;27.88;9.82;;;11.50;59.10;;;;;;6280667;28;20108;-74
2024/02/04 13:23:42;;;;;;;26.90;10.48;;;11.50;59.10;;;;;;6255025;28;20114;-73
2024/02/04 13:26:44;;;;;;;31.20;12.20;;;11.50;58.90;;;;;;6289301;28;20032;-74
2024/02/04 13:29:45;;;;;;;35.30;11.48;;;11.50;58.80;;;;;;6265453;28;20032;-74
2024/02/04 13:32:46;;;;;;;37.85;12.07;;;11.60;58.80;;;;;;6307330;28;20013;-74
2024/02/04 13:35:48;;;;;;;43.92;14.70;;;11.60;58.70;;;;;;6283810;28;20012;-74
2024/02/04 13:38:49;;;;;;;42.47;13.60;;;11.60;58.60;;;;;;6281865;28;20067;-73
2024/02/04 13:41:50;;;;;;;37.03;14.50;;;11.70;58.70;;;;;;6268840;28;20641;-74
2024/02/04 13:44:52;;;;;;;41.42;14.25;;;11.60;58.50;;;;;;6291830;28;20035;-74
2024/02/04 13:47:52;;;;;;;48.53;16.35;;;11.70;58.60;;;;;;6280046;28;20077;-74
2024/02/04 13:50:56;;;;;;;55.08;16.45;;;11.70;58.50;;;;;;6273479;28;20020;-75
2024/02/04 13:53:57;;;;;;;49.05;15.80;;;11.70;58.40;;;;;;6301489;28;20050;-75
2024/02/04 13:56:58;;;;;;;51.47;16.95;;;11.70;58.30;;;;;;6282732;28;20050;-74
2024/02/04 13:59:59;;;;;;;48.28;17.17;;;11.60;58.30;;;;;;6304620;28;20117;-74
2024/02/04 14:03:00;;;;;;;49.58;18.48;;;11.50;58.50;;;;;;6293172;28;20440;-74
2024/02/04 14:06:03;;;;;;;44.30;17.42;;;11.40;58.60;;;;;;6275896;28;20074;-73
2024/02/04 14:09:05;;;;;;;46.53;17.33;;;11.40;58.60;;;;;;6299438;28;20107;-75
2024/02/04 14:12:06;;;;;;;44.28;16.27;;;11.40;58.60;;;;;;6283326;28;20061;-72
2024/02/04 14:15:08;;;;;;;50.13;16.77;;;11.30;58.60;;;;;;6295476;28;20020;-74
2024/02/04 14:18:09;;;;;;;55.67;16.75;;;11.40;58.80;;;;;;6303360;28;20329;-74
2024/02/04 14:21:13;;;;;;;56.67;16.70;;;11.40;58.90;;;;;;6297233;28;20051;-74
2024/02/04 14:24:14;;;;;;;49.50;16.98;;;11.40;58.70;;;;;;6282931;28;20016;-74
2024/02/04 14:27:15;;;;;;;52.17;17.40;;;11.50;58.70;;;;;;6281575;28;20039;-75
2024/02/04 14:30:16;;;;;;;45.92;17.77;;;11.50;58.60;;;;;;6284805;28;20451;-75
2024/02/04 14:33:19;;;;;;;44.78;17.33;;;11.50;58.50;;;;;;6305175;28;20034;-74
2024/02/04 14:36:21;;;;;;;54.33;17.90;;;11.50;58.30;;;;;;6285141;28;20051;-74
2024/02/04 14:39:22;;;;;;;55.25;18.73;;;11.50;58.40;;;;;;6264909;28;20091;-75
2024/02/04 14:42:23;;;;;;;48.97;17.67;;;11.50;58.60;;;;;;6297423;28;20138;-75
2024/02/04 14:45:25;;;;;;;46.85;16.48;;;11.50;58.50;;;;;;6305247;28;20127;-75
2024/02/04 14:48:27;;;;;;;54.20;17.23;;;11.50;58.40;;;;;;6281846;28;20020;-74
2024/02/04 14:51:28;;;;;;;52.65;19.58;;;11.50;58.40;;;;;;6285101;28;20121;-74
2024/02/04 14:54:29;;;;;;;50.47;17.20;;;11.50;58.40;;;;;;6283035;28;20056;-74
2024/02/04 14:57:29;;;;;;;51.78;18.45;;;11.50;58.40;;;;;;6296409;28;20607;-74
2024/02/04 15:00:34;;;;;;;51.33;16.90;;;11.50;58.50;;;;;;6306959;28;20664;-75
2024/02/04 15:03:35;;;;;;;52.20;17.55;;;11.50;58.40;;;;;;6281527;28;20042;-73
2024/02/04 15:06:36;;;;;;;52.05;16.73;;;11.40;58.50;;;;;;6293728;28;20700;-74
2024/02/04 15:09:37;;;;;;;48.75;16.98;;;11.40;58.50;;;;;;6293489;28;20012;-75
2024/02/04 15:12:38;;;;;;;46.15;17.45;;;11.30;58.50;;;;;;6290269;28;20029;-72
2024/02/04 15:15:39;;;;;;;47.33;17.30;;;11.30;58.60;;;;;;6288311;28;20056;-75
2024/02/04 15:18:40;;;;;;;52.25;18.67;;;11.30;58.70;;;;;;6287757;28;20077;-75
2024/02/04 15:21:42;;;;;;;51.08;17.67;;;11.20;58.70;;;;;;6290633;28;20047;-73
2024/02/04 15:24:43;;;;;;;47.42;16.77;;;11.10;59.10;;;;;;6302427;28;20012;-75
2024/02/04 15:27:45;;;;;;;57.13;18.02;;;11.10;58.90;;;;;;6289152;28;20567;-74
2024/02/04 15:30:46;;;;;;;52.45;17.52;;;11.10;58.90;;;;;;6304286;28;20028;-74
2024/02/04 15:33:47;;;;;;;46.85;15.57;;;11.10;59.00;;;;;;6281515;28;20403;-76